Time,TemperatureF,DewpointF,PressureIn,WindDirection,WindDirectionDegrees,WindSpeedMPH,WindSpeedGustMPH,Humidity,HourlyPrecipIn,Conditions,Clouds,dailyrainin,SoftwareType,DateUTC
2013-05-13 00:00:00,43.3,40.0,30.05,NW,319,0.0,0.0,88,0.00,,,0.01,weatherlink.com 1.10,2013-05-13 05:00:00,
2013-05-13 00:15:00,42.9,40.0,30.05,NW,319,0.0,0.0,88,0.00,,,0.00,weatherlink.com 1.10,2013-05-13 05:15:00,
2013-05-13 00:30:00,42.6,40.0,30.05,NW,319,0.0,0.0,89,0.00,,,0.00,weatherlink.com 1.10,2013-05-13 05:30:00,
2013-05-13 00:45:00,42.5,40.0,30.05,NW,319,0.0,0.0,89,0.00,,,0.00,weatherlink.com 1.10,2013-05-13 05:45:00,
2013-05-13 01:01:00,42.3,39.0,30.05,NW,319,0.0,0.0,89,0.00,,,0.00,weatherlink.com 1.10,2013-05-13 06:01:00,
2013-05-13 01:16:00,42.0,39.0,30.06,NW,319,0.0,0.0,90,0.00,,,0.00,weatherlink.com 1.10,2013-05-13 06:16:00,
2013-05-13 01:31:00,41.7,39.0,30.06,NW,319,0.0,0.0,90,0.00,,,0.00,weatherlink.com 1.10,2013-05-13 06:31:00,
2013-05-13 01:46:00,41.3,39.0,30.07,NW,319,0.0,0.0,90,0.00,,,0.00,weatherlink.com 1.10,2013-05-13 06:46:00,
2013-05-13 02:01:00,41.0,38.0,30.07,NW,319,0.0,0.0,90,0.00,,,0.00,weatherlink.com 1.10,2013-05-13 07:01:00,
2013-05-13 02:16:00,40.8,38.0,30.07,NW,319,0.0,0.0,91,0.00,,,0.00,weatherlink.com 1.10,2013-05-13 07:16:00,
2013-05-13 02:31:00,40.5,38.0,30.07,NW,319,0.0,0.0,91,0.00,,,0.00,weatherlink.com 1.10,2013-05-13 07:31:00,
2013-05-13 02:46:00,40.2,38.0,30.07,NW,319,0.0,0.0,91,0.00,,,0.00,weatherlink.com 1.10,2013-05-13 07:46:00,
2013-05-13 03:01:00,39.9,38.0,30.08,NW,319,0.0,0.0,91,0.00,,,0.00,weatherlink.com 1.10,2013-05-13 08:01:00,
2013-05-13 03:16:00,39.7,37.0,30.08,NW,319,0.0,0.0,91,0.00,,,0.00,weatherlink.com 1.10,2013-05-13 08:16:00,
2013-05-13 03:31:00,39.5,37.0,30.08,NW,319,0.0,0.0,91,0.00,,,0.00,weatherlink.com 1.10,2013-05-13 08:31:00,
2013-05-13 03:46:00,39.2,37.0,30.09,NW,319,0.0,0.0,91,0.00,,,0.00,weatherlink.com 1.10,2013-05-13 08:46:00,
2013-05-13 04:01:00,39.0,37.0,30.08,NW,319,0.0,0.0,92,0.00,,,0.00,weatherlink.com 1.10,2013-05-13 09:01:00,
2013-05-13 04:16:00,38.7,37.0,30.09,NW,319,0.0,0.0,92,0.00,,,0.00,weatherlink.com 1.10,2013-05-13 09:16:00,
2013-05-13 04:31:00,38.4,36.0,30.09,NW,319,0.0,0.0,92,0.00,,,0.00,weatherlink.com 1.10,2013-05-13 09:31:00,
2013-05-13 04:46:00,38.2,36.0,30.09,NW,319,0.0,0.0,92,0.00,,,0.00,weatherlink.com 1.10,2013-05-13 09:46:00,
2013-05-13 05:01:00,38.0,36.0,30.10,NW,319,0.0,0.0,92,0.00,,,0.00,weatherlink.com 1.10,2013-05-13 10:01:00,
2013-05-13 05:16:00,37.7,36.0,30.11,NW,319,0.0,0.0,92,0.00,,,0.00,weatherlink.com 1.10,2013-05-13 10:16:00,
2013-05-13 05:31:00,37.6,36.0,30.12,NW,319,0.0,0.0,93,0.00,,,0.00,weatherlink.com 1.10,2013-05-13 10:31:00,
2013-05-13 05:46:00,37.4,35.0,30.13,NW,319,0.0,0.0,92,0.00,,,0.00,weatherlink.com 1.10,2013-05-13 10:46:00,
2013-05-13 06:01:00,37.1,35.0,30.14,NW,319,0.0,0.0,92,0.00,,,0.00,weatherlink.com 1.10,2013-05-13 11:01:00,
2013-05-13 06:16:00,37.0,35.0,30.15,NW,319,0.0,0.0,92,0.00,,,0.00,weatherlink.com 1.10,2013-05-13 11:16:00,
2013-05-13 06:31:00,37.0,35.0,30.16,NW,319,0.0,0.0,93,0.00,,,0.00,weatherlink.com 1.10,2013-05-13 11:31:00,
2013-05-13 06:46:00,37.4,36.0,30.16,NW,319,0.0,0.0,94,0.00,,,0.00,weatherlink.com 1.10,2013-05-13 11:46:00,
2013-05-13 07:01:00,37.9,36.0,30.17,NW,319,0.0,0.0,94,0.00,,,0.00,weatherlink.com 1.10,2013-05-13 12:01:00,
2013-05-13 07:16:00,38.8,38.0,30.17,NW,319,0.0,0.0,95,0.00,,,0.00,weatherlink.com 1.10,2013-05-13 12:16:00,
2013-05-13 07:31:00,40.2,39.0,30.18,NW,319,0.0,0.0,95,0.00,,,0.00,weatherlink.com 1.10,2013-05-13 12:31:00,
2013-05-13 07:46:00,41.9,41.0,30.18,NW,319,0.0,0.0,96,0.00,,,0.00,weatherlink.com 1.10,2013-05-13 12:46:00,
2013-05-13 08:01:00,43.4,42.0,30.18,NW,322,0.0,0.0,96,0.00,,,0.00,weatherlink.com 1.10,2013-05-13 13:01:00,
2013-05-13 08:16:00,45.0,44.0,30.18,NW,322,0.0,0.0,95,0.00,,,0.00,weatherlink.com 1.10,2013-05-13 13:16:00,
2013-05-13 08:32:00,46.7,44.0,30.18,North,355,0.0,0.0,89,0.00,,,0.00,weatherlink.com 1.10,2013-05-13 13:32:00,
2013-05-13 08:47:00,50.0,42.0,30.19,NNW,328,0.0,2.0,74,0.00,,,0.00,weatherlink.com 1.10,2013-05-13 13:47:00,
2013-05-13 09:02:00,52.5,43.0,30.19,NNW,337,0.0,1.0,70,0.00,,,0.00,weatherlink.com 1.10,2013-05-13 14:02:00,
2013-05-13 09:17:00,53.6,45.0,30.19,NNW,334,0.0,0.0,72,0.00,,,0.00,weatherlink.com 1.10,2013-05-13 14:17:00,
2013-05-13 09:32:00,55.7,40.0,30.19,West,281,0.0,4.0,55,0.00,,,0.00,weatherlink.com 1.10,2013-05-13 14:32:00,
2013-05-13 09:47:00,57.0,39.0,30.19,WSW,248,0.0,3.0,52,0.00,,,0.00,weatherlink.com 1.10,2013-05-13 14:47:00,
2013-05-13 10:02:00,57.9,40.0,30.20,NW,321,0.0,6.0,52,0.00,,,0.00,weatherlink.com 1.10,2013-05-13 15:02:00,
2013-05-13 10:17:00,58.7,40.0,30.20,NNW,344,1.0,1.0,50,0.00,,,0.00,weatherlink.com 1.10,2013-05-13 15:17:00,
2013-05-13 10:32:00,59.8,39.0,30.20,NE,39,0.0,5.0,46,0.00,,,0.00,weatherlink.com 1.10,2013-05-13 15:32:00,
2013-05-13 10:47:00,60.4,38.0,30.20,NW,314,0.0,7.0,43,0.00,,,0.00,weatherlink.com 1.10,2013-05-13 15:47:00,
2013-05-13 11:02:00,60.5,39.0,30.20,WSW,252,0.0,6.0,45,0.00,,,0.00,weatherlink.com 1.10,2013-05-13 16:02:00,
2013-05-13 11:17:00,61.7,39.0,30.19,ENE,67,0.0,3.0,44,0.00,,,0.00,weatherlink.com 1.10,2013-05-13 16:17:00,
2013-05-13 11:32:00,62.7,42.0,30.19,West,273,0.0,2.0,47,0.00,,,0.00,weatherlink.com 1.10,2013-05-13 16:32:00,
2013-05-13 11:47:00,63.7,39.0,30.18,North,351,4.0,7.0,41,0.00,,,0.00,weatherlink.com 1.10,2013-05-13 16:47:00,
2013-05-13 12:02:00,64.6,41.0,30.18,NW,315,0.0,8.0,42,0.00,,,0.00,weatherlink.com 1.10,2013-05-13 17:02:00,
2013-05-13 12:17:00,65.3,40.0,30.18,WSW,253,0.0,6.0,40,0.00,,,0.00,weatherlink.com 1.10,2013-05-13 17:17:00,
2013-05-13 12:32:00,65.9,39.0,30.17,NW,314,0.0,8.0,38,0.00,,,0.00,weatherlink.com 1.10,2013-05-13 17:32:00,
2013-05-13 12:47:00,65.6,38.0,30.17,NW,322,2.0,7.0,37,0.00,,,0.00,weatherlink.com 1.10,2013-05-13 17:47:00,
2013-05-13 13:02:00,66.6,37.0,30.17,NNW,338,7.0,7.0,34,0.00,,,0.00,weatherlink.com 1.10,2013-05-13 18:02:00,
2013-05-13 13:17:00,66.9,38.0,30.16,NW,317,0.0,3.0,35,0.00,,,0.00,weatherlink.com 1.10,2013-05-13 18:17:00,
2013-05-13 13:32:00,66.7,39.0,30.16,NNE,20,1.0,6.0,36,0.00,,,0.00,weatherlink.com 1.10,2013-05-13 18:32:00,
2013-05-13 13:47:00,67.1,40.0,30.15,West,275,1.0,8.0,37,0.00,,,0.00,weatherlink.com 1.10,2013-05-13 18:47:00,
2013-05-13 14:03:00,67.4,40.0,30.14,NW,311,1.0,6.0,37,0.00,,,0.00,weatherlink.com 1.10,2013-05-13 19:03:00,
2013-05-13 14:18:00,67.7,41.0,30.14,NNW,338,5.0,10.0,38,0.00,,,0.00,weatherlink.com 1.10,2013-05-13 19:18:00,
2013-05-13 14:33:00,68.5,40.0,30.13,NNW,327,1.0,5.0,36,0.00,,,0.00,weatherlink.com 1.10,2013-05-13 19:33:00,
2013-05-13 14:48:00,68.3,41.0,30.12,NNE,12,0.0,11.0,37,0.00,,,0.00,weatherlink.com 1.10,2013-05-13 19:48:00,
2013-05-13 15:03:00,68.4,41.0,30.12,WNW,294,3.0,6.0,37,0.00,,,0.00,weatherlink.com 1.10,2013-05-13 20:03:00,
2013-05-13 15:18:00,68.8,40.0,30.11,WSW,238,0.0,15.0,35,0.00,,,0.00,weatherlink.com 1.10,2013-05-13 20:18:00,
2013-05-13 15:33:00,69.4,42.0,30.10,WNW,292,2.0,6.0,37,0.00,,,0.00,weatherlink.com 1.10,2013-05-13 20:33:00,
2013-05-13 15:48:00,69.2,40.0,30.10,WNW,294,2.0,11.0,35,0.00,,,0.00,weatherlink.com 1.10,2013-05-13 20:48:00,
2013-05-13 16:03:00,68.8,42.0,30.10,West,274,0.0,9.0,38,0.00,,,0.00,weatherlink.com 1.10,2013-05-13 21:03:00,
2013-05-13 16:18:00,68.8,43.0,30.10,WNW,290,1.0,9.0,39,0.00,,,0.00,weatherlink.com 1.10,2013-05-13 21:18:00,
2013-05-13 16:33:00,68.4,42.0,30.09,North,5,2.0,10.0,38,0.00,,,0.00,weatherlink.com 1.10,2013-05-13 21:33:00,
2013-05-13 16:48:00,68.4,42.0,30.09,NW,317,0.0,8.0,39,0.00,,,0.00,weatherlink.com 1.10,2013-05-13 21:48:00,
2013-05-13 17:03:00,68.2,41.0,30.09,North,5,0.0,10.0,37,0.00,,,0.00,weatherlink.com 1.10,2013-05-13 22:03:00,
2013-05-13 17:18:00,68.0,41.0,30.09,NNE,26,1.0,7.0,37,0.00,,,0.00,weatherlink.com 1.10,2013-05-13 22:18:00,
2013-05-13 17:33:00,68.0,42.0,30.09,NNW,334,0.0,7.0,39,0.00,,,0.00,weatherlink.com 1.10,2013-05-13 22:33:00,
2013-05-13 17:48:00,67.9,41.0,30.09,NNW,327,3.0,7.0,38,0.00,,,0.00,weatherlink.com 1.10,2013-05-13 22:48:00,
2013-05-13 18:03:00,67.6,42.0,30.09,WSW,258,0.0,3.0,40,0.00,,,0.00,weatherlink.com 1.10,2013-05-13 23:03:00,
2013-05-13 18:18:00,67.2,43.0,30.09,NW,312,1.0,2.0,42,0.00,,,0.00,weatherlink.com 1.10,2013-05-13 23:18:00,
2013-05-13 18:33:00,66.8,43.0,30.08,WNW,299,0.0,8.0,43,0.00,,,0.00,weatherlink.com 1.10,2013-05-13 23:33:00,
2013-05-13 18:48:00,66.2,43.0,30.09,NNW,327,0.0,2.0,43,0.00,,,0.00,weatherlink.com 1.10,2013-05-13 23:48:00,
2013-05-13 19:03:00,65.4,44.0,30.09,North,360,0.0,3.0,47,0.00,,,0.00,weatherlink.com 1.10,2013-05-14 00:03:00,
2013-05-13 19:18:00,63.6,46.0,30.09,NNW,333,0.0,3.0,54,0.00,,,0.00,weatherlink.com 1.10,2013-05-14 00:18:00,
2013-05-13 19:33:00,62.0,48.0,30.09,NNW,333,0.0,0.0,60,0.00,,,0.00,weatherlink.com 1.10,2013-05-14 00:33:00,
2013-05-13 19:48:00,60.2,47.0,30.09,NNW,333,0.0,0.0,63,0.00,,,0.00,weatherlink.com 1.10,2013-05-14 00:48:00,
2013-05-13 20:03:00,58.5,47.0,30.09,NNW,333,0.0,0.0,66,0.00,,,0.00,weatherlink.com 1.10,2013-05-14 01:03:00,
2013-05-13 20:18:00,57.0,46.0,30.09,NNW,333,0.0,0.0,68,0.00,,,0.00,weatherlink.com 1.10,2013-05-14 01:18:00,
2013-05-13 20:33:00,55.7,46.0,30.09,NNW,333,0.0,0.0,70,0.00,,,0.00,weatherlink.com 1.10,2013-05-14 01:33:00,
2013-05-13 20:48:00,54.5,46.0,30.10,NNW,333,0.0,0.0,73,0.00,,,0.00,weatherlink.com 1.10,2013-05-14 01:48:00,
2013-05-13 21:03:00,53.4,45.0,30.10,NNW,333,0.0,0.0,74,0.00,,,0.00,weatherlink.com 1.10,2013-05-14 02:03:00,
2013-05-13 21:18:00,52.6,45.0,30.11,NNW,333,0.0,0.0,76,0.00,,,0.00,weatherlink.com 1.10,2013-05-14 02:18:00,
2013-05-13 21:33:00,51.8,45.0,30.11,NNW,333,0.0,0.0,78,0.00,,,0.00,weatherlink.com 1.10,2013-05-14 02:33:00,
2013-05-13 21:48:00,51.0,45.0,30.12,NNW,333,0.0,0.0,80,0.00,,,0.00,weatherlink.com 1.10,2013-05-14 02:48:00,
2013-05-13 22:03:00,50.3,45.0,30.12,NNW,333,0.0,0.0,81,0.00,,,0.00,weatherlink.com 1.10,2013-05-14 03:03:00,
2013-05-13 22:18:00,49.7,44.0,30.12,NNW,333,0.0,0.0,82,0.00,,,0.00,weatherlink.com 1.10,2013-05-14 03:18:00,
2013-05-13 22:33:00,49.1,45.0,30.12,NNW,333,0.0,0.0,84,0.00,,,0.00,weatherlink.com 1.10,2013-05-14 03:33:00,
2013-05-13 22:48:00,48.7,44.0,30.13,NNW,333,0.0,0.0,84,0.00,,,0.00,weatherlink.com 1.10,2013-05-14 03:48:00,
2013-05-13 23:03:00,48.3,44.0,30.13,NNW,333,0.0,0.0,86,0.00,,,0.00,weatherlink.com 1.10,2013-05-14 04:03:00,
2013-05-13 23:18:00,47.9,44.0,30.13,NNW,333,0.0,0.0,87,0.00,,,0.00,weatherlink.com 1.10,2013-05-14 04:18:00,
2013-05-13 23:33:00,47.4,44.0,30.13,NNW,333,0.0,0.0,87,0.00,,,0.00,weatherlink.com 1.10,2013-05-14 04:33:00,
2013-05-13 23:48:00,47.1,44.0,30.13,NNW,333,0.0,0.0,88,0.00,,,0.00,weatherlink.com 1.10,2013-05-14 04:48:00,